sensor_id;sensor_type;location;lat;lon;timestamp;pressure;altitude;pressure_sealevel;temperature
74539;BMP180;66042;51.090;-115.340;2023-08-08T00:01:36;86749.00;;;37.70
74539;BMP180;66042;51.090;-115.340;2023-08-08T00:04:06;86755.40;;;37.10
74539;BMP180;66042;51.090;-115.340;2023-08-08T00:06:33;86751.60;;;36.12
74539;BMP180;66042;51.090;-115.340;2023-08-08T00:09:01;86753.80;;;35.52
74539;BMP180;66042;51.090;-115.340;2023-08-08T00:11:27;86757.40;;;34.94
74539;BMP180;66042;51.090;-115.340;2023-08-08T00:13:55;86760.20;;;34.20
74539;BMP180;66042;51.090;-115.340;2023-08-08T00:16:23;86760.20;;;33.56
74539;BMP180;66042;51.090;-115.340;2023-08-08T00:18:49;86758.00;;;33.12
74539;BMP180;66042;51.090;-115.340;2023-08-08T00:21:19;86760.20;;;32.68
74539;BMP180;66042;51.090;-115.340;2023-08-08T00:23:46;86753.80;;;32.12
74539;BMP180;66042;51.090;-115.340;2023-08-08T00:26:13;86754.20;;;31.60
74539;BMP180;66042;51.090;-115.340;2023-08-08T00:28:40;86747.20;;;31.12
74539;BMP180;66042;51.090;-115.340;2023-08-08T00:31:07;86741.60;;;30.80
74539;BMP180;66042;51.090;-115.340;2023-08-08T00:33:34;86739.20;;;30.60
74539;BMP180;66042;51.090;-115.340;2023-08-08T00:36:01;86738.20;;;30.44
74539;BMP180;66042;51.090;-115.340;2023-08-08T00:38:28;86740.60;;;30.36
74539;BMP180;66042;51.090;-115.340;2023-08-08T00:40:55;86737.00;;;30.20
74539;BMP180;66042;51.090;-115.340;2023-08-08T00:43:22;86736.80;;;30.20
74539;BMP180;66042;51.090;-115.340;2023-08-08T00:45:49;86730.60;;;30.06
74539;BMP180;66042;51.090;-115.340;2023-08-08T00:48:17;86739.20;;;29.70
74539;BMP180;66042;51.090;-115.340;2023-08-08T00:50:48;86737.80;;;29.40
74539;BMP180;66042;51.090;-115.340;2023-08-08T00:53:18;86730.40;;;29.10
74539;BMP180;66042;51.090;-115.340;2023-08-08T00:55:47;86732.80;;;28.80
74539;BMP180;66042;51.090;-115.340;2023-08-08T00:58:15;86728.00;;;28.60
74539;BMP180;66042;51.090;-115.340;2023-08-08T01:00:42;86723.40;;;28.30
74539;BMP180;66042;51.090;-115.340;2023-08-08T01:03:09;86715.60;;;28.06
74539;BMP180;66042;51.090;-115.340;2023-08-08T01:05:47;86712.00;;;27.70
74539;BMP180;66042;51.090;-115.340;2023-08-08T01:08:20;86714.00;;;27.50
74539;BMP180;66042;51.090;-115.340;2023-08-08T01:10:50;86712.00;;;27.20
74539;BMP180;66042;51.090;-115.340;2023-08-08T01:13:25;86712.20;;;27.10
74539;BMP180;66042;51.090;-115.340;2023-08-08T01:15:56;86714.80;;;26.90
74539;BMP180;66042;51.090;-115.340;2023-08-08T01:18:25;86717.20;;;26.70
74539;BMP180;66042;51.090;-115.340;2023-08-08T01:20:54;86719.60;;;26.52
74539;BMP180;66042;51.090;-115.340;2023-08-08T01:26:09;86727.40;;;26.30
74539;BMP180;66042;51.090;-115.340;2023-08-08T01:28:36;86721.80;;;26.12
74539;BMP180;66042;51.090;-115.340;2023-08-08T01:31:03;86722.40;;;26.00
74539;BMP180;66042;51.090;-115.340;2023-08-08T01:33:30;86711.20;;;25.80
74539;BMP180;66042;51.090;-115.340;2023-08-08T01:36:09;86711.00;;;25.60
74539;BMP180;66042;51.090;-115.340;2023-08-08T01:38:47;86709.60;;;25.40
74539;BMP180;66042;51.090;-115.340;2023-08-08T01:41:16;86712.60;;;25.20
74539;BMP180;66042;51.090;-115.340;2023-08-08T01:43:45;86715.00;;;25.10
74539;BMP180;66042;51.090;-115.340;2023-08-08T01:46:12;86723.80;;;25.00
74539;BMP180;66042;51.090;-115.340;2023-08-08T01:48:40;86727.40;;;24.90
74539;BMP180;66042;51.090;-115.340;2023-08-08T01:51:11;86748.20;;;24.80
74539;BMP180;66042;51.090;-115.340;2023-08-08T01:53:38;86752.20;;;24.70
74539;BMP180;66042;51.090;-115.340;2023-08-08T01:56:05;86763.00;;;24.40
74539;BMP180;66042;51.090;-115.340;2023-08-08T01:58:32;86756.20;;;24.16
74539;BMP180;66042;51.090;-115.340;2023-08-08T02:00:59;86817.80;;;23.56
74539;BMP180;66042;51.090;-115.340;2023-08-08T02:03:26;86866.80;;;22.78
74539;BMP180;66042;51.090;-115.340;2023-08-08T02:05:53;86874.40;;;22.12
74539;BMP180;66042;51.090;-115.340;2023-08-08T02:08:20;86884.20;;;21.46
74539;BMP180;66042;51.090;-115.340;2023-08-08T02:10:47;86895.40;;;21.00
74539;BMP180;66042;51.090;-115.340;2023-08-08T02:13:15;86897.80;;;20.52
74539;BMP180;66042;51.090;-115.340;2023-08-08T02:15:42;86882.00;;;20.04
74539;BMP180;66042;51.090;-115.340;2023-08-08T02:18:10;86890.00;;;19.60
74539;BMP180;66042;51.090;-115.340;2023-08-08T02:20:37;86904.20;;;19.30
74539;BMP180;66042;51.090;-115.340;2023-08-08T02:45:44;86973.40;;;17.96
74539;BMP180;66042;51.090;-115.340;2023-08-08T02:48:12;86995.40;;;17.90
74539;BMP180;66042;51.090;-115.340;2023-08-08T02:50:39;86989.80;;;17.80
74539;BMP180;66042;51.090;-115.340;2023-08-08T02:53:06;86992.40;;;17.60
74539;BMP180;66042;51.090;-115.340;2023-08-08T02:55:33;86996.40;;;17.52
74539;BMP180;66042;51.090;-115.340;2023-08-08T02:58:00;86994.40;;;17.40
74539;BMP180;66042;51.090;-115.340;2023-08-08T03:00:27;86985.60;;;17.30
74539;BMP180;66042;51.090;-115.340;2023-08-08T03:02:54;86981.80;;;17.20
74539;BMP180;66042;51.090;-115.340;2023-08-08T03:05:21;86991.60;;;17.10
74539;BMP180;66042;51.090;-115.340;2023-08-08T03:07:48;86998.60;;;17.00
74539;BMP180;66042;51.090;-115.340;2023-08-08T03:10:16;86999.20;;;16.90
74539;BMP180;66042;51.090;-115.340;2023-08-08T03:12:43;86999.20;;;16.80
74539;BMP180;66042;51.090;-115.340;2023-08-08T03:15:10;87000.40;;;16.70
74539;BMP180;66042;51.090;-115.340;2023-08-08T03:17:37;87006.60;;;16.56
74539;BMP180;66042;51.090;-115.340;2023-08-08T03:20:04;86999.80;;;16.40
74539;BMP180;66042;51.090;-115.340;2023-08-08T03:22:33;87011.60;;;16.30
74539;BMP180;66042;51.090;-115.340;2023-08-08T03:25:00;87017.40;;;16.30
74539;BMP180;66042;51.090;-115.340;2023-08-08T03:27:27;87019.20;;;16.30
74539;BMP180;66042;51.090;-115.340;2023-08-08T03:29:54;87018.80;;;16.20
74539;BMP180;66042;51.090;-115.340;2023-08-08T03:32:23;87015.20;;;16.20
74539;BMP180;66042;51.090;-115.340;2023-08-08T03:34:50;87015.20;;;16.20
74539;BMP180;66042;51.090;-115.340;2023-08-08T03:37:17;87009.40;;;16.20
74539;BMP180;66042;51.090;-115.340;2023-08-08T03:39:44;87007.60;;;16.20
74539;BMP180;66042;51.090;-115.340;2023-08-08T03:42:10;87006.40;;;16.10
74539;BMP180;66042;51.090;-115.340;2023-08-08T03:44:37;87014.00;;;16.10
74539;BMP180;66042;51.090;-115.340;2023-08-08T03:47:04;87014.60;;;16.10
74539;BMP180;66042;51.090;-115.340;2023-08-08T03:49:32;87014.40;;;16.02
74539;BMP180;66042;51.090;-115.340;2023-08-08T03:51:59;87016.00;;;16.00
74539;BMP180;66042;51.090;-115.340;2023-08-08T03:54:26;87009.60;;;16.08
74539;BMP180;66042;51.090;-115.340;2023-08-08T03:56:53;87005.60;;;16.02
74539;BMP180;66042;51.090;-115.340;2023-08-08T03:59:20;87006.40;;;16.00
74539;BMP180;66042;51.090;-115.340;2023-08-08T04:01:47;87017.20;;;15.90
74539;BMP180;66042;51.090;-115.340;2023-08-08T04:04:14;87019.60;;;15.90
74539;BMP180;66042;51.090;-115.340;2023-08-08T04:06:41;87021.00;;;15.90
74539;BMP180;66042;51.090;-115.340;2023-08-08T04:09:08;87018.00;;;15.90
74539;BMP180;66042;51.090;-115.340;2023-08-08T04:11:35;87024.20;;;15.90
74539;BMP180;66042;51.090;-115.340;2023-08-08T04:14:03;87023.60;;;15.80
74539;BMP180;66042;51.090;-115.340;2023-08-08T04:16:30;87021.80;;;15.80
74539;BMP180;66042;51.090;-115.340;2023-08-08T04:18:57;87016.60;;;15.70
74539;BMP180;66042;51.090;-115.340;2023-08-08T04:21:25;87016.00;;;15.70
74539;BMP180;66042;51.090;-115.340;2023-08-08T04:23:55;87011.20;;;15.80
74539;BMP180;66042;51.090;-115.340;2023-08-08T04:26:22;87014.60;;;15.80
74539;BMP180;66042;51.090;-115.340;2023-08-08T04:28:48;87012.60;;;15.72
74539;BMP180;66042;51.090;-115.340;2023-08-08T04:31:16;87011.00;;;15.70
74539;BMP180;66042;51.090;-115.340;2023-08-08T04:33:43;87006.00;;;15.70
74539;BMP180;66042;51.090;-115.340;2023-08-08T04:36:10;87001.40;;;15.70
74539;BMP180;66042;51.090;-115.340;2023-08-08T04:38:37;86998.60;;;15.70
74539;BMP180;66042;51.090;-115.340;2023-08-08T04:41:04;86997.00;;;15.70
74539;BMP180;66042;51.090;-115.340;2023-08-08T04:43:31;86984.80;;;15.70
74539;BMP180;66042;51.090;-115.340;2023-08-08T04:45:58;86976.00;;;15.70
74539;BMP180;66042;51.090;-115.340;2023-08-08T04:48:25;86964.00;;;15.60
74539;BMP180;66042;51.090;-115.340;2023-08-08T04:50:52;86962.20;;;15.60
74539;BMP180;66042;51.090;-115.340;2023-08-08T04:53:19;86961.80;;;15.60
74539;BMP180;66042;51.090;-115.340;2023-08-08T04:55:46;86960.00;;;15.60
74539;BMP180;66042;51.090;-115.340;2023-08-08T04:58:14;86963.60;;;15.50
74539;BMP180;66042;51.090;-115.340;2023-08-08T05:00:40;86963.40;;;15.48
74539;BMP180;66042;51.090;-115.340;2023-08-08T05:03:07;86963.00;;;15.40
74539;BMP180;66042;51.090;-115.340;2023-08-08T05:05:34;86971.60;;;15.40
74539;BMP180;66042;51.090;-115.340;2023-08-08T05:08:02;86973.00;;;15.40
74539;BMP180;66042;51.090;-115.340;2023-08-08T05:10:29;86970.20;;;15.40
74539;BMP180;66042;51.090;-115.340;2023-08-08T05:12:57;86968.00;;;15.30
74539;BMP180;66042;51.090;-115.340;2023-08-08T05:15:24;86964.20;;;15.40
74539;BMP180;66042;51.090;-115.340;2023-08-08T05:17:51;86955.80;;;15.40
74539;BMP180;66042;51.090;-115.340;2023-08-08T05:20:21;86957.00;;;15.40
74539;BMP180;66042;51.090;-115.340;2023-08-08T05:22:48;86954.60;;;15.44
74539;BMP180;66042;51.090;-115.340;2023-08-08T05:25:15;86957.60;;;15.44
74539;BMP180;66042;51.090;-115.340;2023-08-08T05:27:42;86966.60;;;15.50
74539;BMP180;66042;51.090;-115.340;2023-08-08T05:30:09;86976.60;;;15.50
74539;BMP180;66042;51.090;-115.340;2023-08-08T05:32:36;86978.00;;;15.50
74539;BMP180;66042;51.090;-115.340;2023-08-08T05:35:03;86973.20;;;15.50
74539;BMP180;66042;51.090;-115.340;2023-08-08T05:37:31;86969.20;;;15.50
74539;BMP180;66042;51.090;-115.340;2023-08-08T05:39:58;86972.00;;;15.50
74539;BMP180;66042;51.090;-115.340;2023-08-08T05:42:24;86979.40;;;15.50
74539;BMP180;66042;51.090;-115.340;2023-08-08T05:44:51;86989.20;;;15.50
74539;BMP180;66042;51.090;-115.340;2023-08-08T05:47:18;86987.20;;;15.50
74539;BMP180;66042;51.090;-115.340;2023-08-08T05:49:46;86990.60;;;15.50
74539;BMP180;66042;51.090;-115.340;2023-08-08T05:52:13;86993.00;;;15.56
74539;BMP180;66042;51.090;-115.340;2023-08-08T05:54:40;87007.80;;;15.54
74539;BMP180;66042;51.090;-115.340;2023-08-08T05:57:07;87017.40;;;15.50
74539;BMP180;66042;51.090;-115.340;2023-08-08T05:59:34;87027.60;;;15.42
74539;BMP180;66042;51.090;-115.340;2023-08-08T06:02:01;87038.40;;;15.40
74539;BMP180;66042;51.090;-115.340;2023-08-08T06:04:28;87046.00;;;15.40
74539;BMP180;66042;51.090;-115.340;2023-08-08T06:06:55;87044.20;;;15.30
74539;BMP180;66042;51.090;-115.340;2023-08-08T06:09:21;87042.60;;;15.20
74539;BMP180;66042;51.090;-115.340;2023-08-08T06:11:49;87045.40;;;15.10
74539;BMP180;66042;51.090;-115.340;2023-08-08T06:14:15;87044.20;;;15.00
74539;BMP180;66042;51.090;-115.340;2023-08-08T06:16:43;87043.60;;;15.00
74539;BMP180;66042;51.090;-115.340;2023-08-08T06:19:10;87042.00;;;15.10
74539;BMP180;66042;51.090;-115.340;2023-08-08T06:21:38;87034.80;;;15.14
74539;BMP180;66042;51.090;-115.340;2023-08-08T06:24:04;87035.40;;;15.20
74539;BMP180;66042;51.090;-115.340;2023-08-08T06:26:31;87039.60;;;15.20
74539;BMP180;66042;51.090;-115.340;2023-08-08T06:28:58;87031.00;;;15.28
74539;BMP180;66042;51.090;-115.340;2023-08-08T06:31:25;87031.00;;;15.30
74539;BMP180;66042;51.090;-115.340;2023-08-08T06:33:51;87022.60;;;15.30
74539;BMP180;66042;51.090;-115.340;2023-08-08T06:36:18;87009.60;;;15.30
74539;BMP180;66042;51.090;-115.340;2023-08-08T06:38:45;87005.20;;;15.32
74539;BMP180;66042;51.090;-115.340;2023-08-08T06:41:12;87001.20;;;15.30
74539;BMP180;66042;51.090;-115.340;2023-08-08T06:43:39;86997.60;;;15.36
74539;BMP180;66042;51.090;-115.340;2023-08-08T06:46:06;86991.60;;;15.40
74539;BMP180;66042;51.090;-115.340;2023-08-08T06:48:34;86981.60;;;15.30
74539;BMP180;66042;51.090;-115.340;2023-08-08T06:51:00;86972.80;;;15.30
74539;BMP180;66042;51.090;-115.340;2023-08-08T06:53:28;86957.40;;;15.30
74539;BMP180;66042;51.090;-115.340;2023-08-08T06:55:55;86948.80;;;15.40
74539;BMP180;66042;51.090;-115.340;2023-08-08T06:58:22;86949.60;;;15.30
74539;BMP180;66042;51.090;-115.340;2023-08-08T07:00:51;86948.00;;;15.20
74539;BMP180;66042;51.090;-115.340;2023-08-08T07:03:18;86953.00;;;15.10
74539;BMP180;66042;51.090;-115.340;2023-08-08T07:05:45;86948.00;;;15.00
74539;BMP180;66042;51.090;-115.340;2023-08-08T07:08:14;86937.80;;;15.08
74539;BMP180;66042;51.090;-115.340;2023-08-08T07:10:40;86924.20;;;15.10
74539;BMP180;66042;51.090;-115.340;2023-08-08T07:13:08;86923.00;;;15.04
74539;BMP180;66042;51.090;-115.340;2023-08-08T07:15:35;86939.40;;;15.00
74539;BMP180;66042;51.090;-115.340;2023-08-08T07:18:03;86955.40;;;14.90
74539;BMP180;66042;51.090;-115.340;2023-08-08T07:20:31;86963.20;;;14.90
74539;BMP180;66042;51.090;-115.340;2023-08-08T07:22:58;86966.00;;;14.90
74539;BMP180;66042;51.090;-115.340;2023-08-08T07:25:27;86972.00;;;14.90
74539;BMP180;66042;51.090;-115.340;2023-08-08T07:27:54;86971.40;;;14.90
74539;BMP180;66042;51.090;-115.340;2023-08-08T07:30:21;86977.20;;;14.90
74539;BMP180;66042;51.090;-115.340;2023-08-08T07:32:49;86984.60;;;14.90
74539;BMP180;66042;51.090;-115.340;2023-08-08T07:35:16;86989.20;;;14.98
74539;BMP180;66042;51.090;-115.340;2023-08-08T07:37:44;86996.60;;;15.00
74539;BMP180;66042;51.090;-115.340;2023-08-08T07:40:19;86994.00;;;14.90
74539;BMP180;66042;51.090;-115.340;2023-08-08T07:42:48;86999.00;;;14.90
74539;BMP180;66042;51.090;-115.340;2023-08-08T07:45:16;86997.40;;;14.80
74539;BMP180;66042;51.090;-115.340;2023-08-08T07:47:43;86990.60;;;14.78
74539;BMP180;66042;51.090;-115.340;2023-08-08T07:50:11;86992.00;;;14.60
74539;BMP180;66042;51.090;-115.340;2023-08-08T07:52:38;86998.00;;;14.50
74539;BMP180;66042;51.090;-115.340;2023-08-08T07:55:05;86996.80;;;14.50
74539;BMP180;66042;51.090;-115.340;2023-08-08T07:57:33;87004.00;;;14.40
74539;BMP180;66042;51.090;-115.340;2023-08-08T08:00:03;87003.00;;;14.30
74539;BMP180;66042;51.090;-115.340;2023-08-08T08:02:48;86994.80;;;14.20
74539;BMP180;66042;51.090;-115.340;2023-08-08T08:05:15;86994.20;;;14.16
74539;BMP180;66042;51.090;-115.340;2023-08-08T08:07:42;86995.40;;;14.10
74539;BMP180;66042;51.090;-115.340;2023-08-08T08:10:12;86997.00;;;14.10
74539;BMP180;66042;51.090;-115.340;2023-08-08T08:12:40;86987.20;;;14.00
74539;BMP180;66042;51.090;-115.340;2023-08-08T08:15:09;86990.40;;;14.00
74539;BMP180;66042;51.090;-115.340;2023-08-08T08:17:37;86989.40;;;14.00
74539;BMP180;66042;51.090;-115.340;2023-08-08T08:20:05;86985.40;;;14.00
74539;BMP180;66042;51.090;-115.340;2023-08-08T08:22:37;86984.40;;;14.00
74539;BMP180;66042;51.090;-115.340;2023-08-08T08:25:06;86979.20;;;14.00
74539;BMP180;66042;51.090;-115.340;2023-08-08T08:27:36;86979.80;;;14.10
74539;BMP180;66042;51.090;-115.340;2023-08-08T08:30:08;86973.80;;;14.14
74539;BMP180;66042;51.090;-115.340;2023-08-08T08:32:41;86965.80;;;14.20
74539;BMP180;66042;51.090;-115.340;2023-08-08T08:35:09;86964.40;;;14.20
74539;BMP180;66042;51.090;-115.340;2023-08-08T08:37:36;86949.80;;;14.30
74539;BMP180;66042;51.090;-115.340;2023-08-08T08:40:04;86947.60;;;14.30
74539;BMP180;66042;51.090;-115.340;2023-08-08T08:42:33;86949.80;;;14.40
74539;BMP180;66042;51.090;-115.340;2023-08-08T08:45:03;86948.40;;;14.40
74539;BMP180;66042;51.090;-115.340;2023-08-08T08:47:33;86950.20;;;14.40
74539;BMP180;66042;51.090;-115.340;2023-08-08T08:50:02;86946.80;;;14.42
74539;BMP180;66042;51.090;-115.340;2023-08-08T08:52:30;86943.00;;;14.50
74539;BMP180;66042;51.090;-115.340;2023-08-08T08:54:58;86935.40;;;14.50
74539;BMP180;66042;51.090;-115.340;2023-08-08T08:57:24;86929.20;;;14.50
74539;BMP180;66042;51.090;-115.340;2023-08-08T08:59:52;86923.20;;;14.50
74539;BMP180;66042;51.090;-115.340;2023-08-08T09:02:19;86918.40;;;14.50
74539;BMP180;66042;51.090;-115.340;2023-08-08T09:04:47;86920.20;;;14.50
74539;BMP180;66042;51.090;-115.340;2023-08-08T09:07:16;86917.60;;;14.36
74539;BMP180;66042;51.090;-115.340;2023-08-08T09:09:46;86916.60;;;14.30
74539;BMP180;66042;51.090;-115.340;2023-08-08T09:12:15;86914.40;;;14.38
74539;BMP180;66042;51.090;-115.340;2023-08-08T09:14:43;86915.00;;;14.40
74539;BMP180;66042;51.090;-115.340;2023-08-08T09:17:13;86909.20;;;14.40
74539;BMP180;66042;51.090;-115.340;2023-08-08T09:19:45;86908.00;;;14.40
74539;BMP180;66042;51.090;-115.340;2023-08-08T09:22:15;86907.00;;;14.40
74539;BMP180;66042;51.090;-115.340;2023-08-08T09:24:42;86907.80;;;14.30
74539;BMP180;66042;51.090;-115.340;2023-08-08T09:27:10;86908.80;;;14.30
74539;BMP180;66042;51.090;-115.340;2023-08-08T09:29:37;86908.20;;;14.30
74539;BMP180;66042;51.090;-115.340;2023-08-08T09:32:08;86905.60;;;14.20
74539;BMP180;66042;51.090;-115.340;2023-08-08T09:34:36;86906.40;;;14.20
74539;BMP180;66042;51.090;-115.340;2023-08-08T09:37:06;86909.60;;;14.20
74539;BMP180;66042;51.090;-115.340;2023-08-08T09:39:33;86907.00;;;14.20
74539;BMP180;66042;51.090;-115.340;2023-08-08T09:42:02;86901.40;;;14.20
74539;BMP180;66042;51.090;-115.340;2023-08-08T09:44:30;86896.80;;;14.20
74539;BMP180;66042;51.090;-115.340;2023-08-08T09:46:59;86896.80;;;14.20
74539;BMP180;66042;51.090;-115.340;2023-08-08T09:49:27;86894.00;;;14.20
74539;BMP180;66042;51.090;-115.340;2023-08-08T09:51:55;86885.60;;;14.20
74539;BMP180;66042;51.090;-115.340;2023-08-08T09:54:23;86887.20;;;14.20
74539;BMP180;66042;51.090;-115.340;2023-08-08T09:56:51;86887.00;;;14.12
74539;BMP180;66042;51.090;-115.340;2023-08-08T09:59:19;86881.40;;;14.12
74539;BMP180;66042;51.090;-115.340;2023-08-08T10:01:47;86875.20;;;14.10
74539;BMP180;66042;51.090;-115.340;2023-08-08T10:04:15;86875.20;;;14.10
74539;BMP180;66042;51.090;-115.340;2023-08-08T10:06:43;86874.00;;;14.10
74539;BMP180;66042;51.090;-115.340;2023-08-08T10:09:10;86870.00;;;14.08
74539;BMP180;66042;51.090;-115.340;2023-08-08T10:11:39;86863.80;;;14.00
74539;BMP180;66042;51.090;-115.340;2023-08-08T10:14:10;86864.40;;;13.90
74539;BMP180;66042;51.090;-115.340;2023-08-08T10:16:38;86862.60;;;13.90
74539;BMP180;66042;51.090;-115.340;2023-08-08T10:19:07;86862.00;;;13.80
74539;BMP180;66042;51.090;-115.340;2023-08-08T10:21:43;86863.80;;;13.80
74539;BMP180;66042;51.090;-115.340;2023-08-08T10:24:10;86860.80;;;13.78
74539;BMP180;66042;51.090;-115.340;2023-08-08T10:26:59;86863.40;;;13.60
74539;BMP180;66042;51.090;-115.340;2023-08-08T10:29:31;86854.00;;;13.56
74539;BMP180;66042;51.090;-115.340;2023-08-08T10:32:05;86852.00;;;13.60
74539;BMP180;66042;51.090;-115.340;2023-08-08T10:34:41;86852.40;;;13.50
74539;BMP180;66042;51.090;-115.340;2023-08-08T10:37:17;86849.40;;;13.50
74539;BMP180;66042;51.090;-115.340;2023-08-08T10:39:54;86847.40;;;13.40
74539;BMP180;66042;51.090;-115.340;2023-08-08T10:42:25;86845.80;;;13.30
74539;BMP180;66042;51.090;-115.340;2023-08-08T10:44:57;86845.80;;;13.30
74539;BMP180;66042;51.090;-115.340;2023-08-08T10:47:35;86838.20;;;13.30
74539;BMP180;66042;51.090;-115.340;2023-08-08T10:50:14;86835.80;;;13.30
74539;BMP180;66042;51.090;-115.340;2023-08-08T10:52:54;86830.80;;;13.30
74539;BMP180;66042;51.090;-115.340;2023-08-08T10:55:33;86833.80;;;13.30
74539;BMP180;66042;51.090;-115.340;2023-08-08T10:58:10;86833.00;;;13.20
74539;BMP180;66042;51.090;-115.340;2023-08-08T11:00:42;86829.80;;;13.20
74539;BMP180;66042;51.090;-115.340;2023-08-08T11:03:10;86825.00;;;13.20
74539;BMP180;66042;51.090;-115.340;2023-08-08T11:05:38;86817.20;;;13.18
74539;BMP180;66042;51.090;-115.340;2023-08-08T11:08:07;86822.80;;;13.18
74539;BMP180;66042;51.090;-115.340;2023-08-08T11:10:39;86821.20;;;13.10
74539;BMP180;66042;51.090;-115.340;2023-08-08T11:13:08;86821.20;;;13.04
74539;BMP180;66042;51.090;-115.340;2023-08-08T11:15:36;86823.60;;;12.98
74539;BMP180;66042;51.090;-115.340;2023-08-08T11:18:04;86820.20;;;12.90
74539;BMP180;66042;51.090;-115.340;2023-08-08T11:20:34;86818.00;;;12.90
74539;BMP180;66042;51.090;-115.340;2023-08-08T11:23:02;86817.60;;;12.90
74539;BMP180;66042;51.090;-115.340;2023-08-08T11:25:32;86811.00;;;12.84
74539;BMP180;66042;51.090;-115.340;2023-08-08T11:27:59;86811.20;;;12.90
74539;BMP180;66042;51.090;-115.340;2023-08-08T11:30:31;86806.80;;;12.80
74539;BMP180;66042;51.090;-115.340;2023-08-08T11:33:00;86812.00;;;12.80
74539;BMP180;66042;51.090;-115.340;2023-08-08T11:35:28;86809.60;;;12.80
74539;BMP180;66042;51.090;-115.340;2023-08-08T11:37:58;86815.60;;;12.80
74539;BMP180;66042;51.090;-115.340;2023-08-08T11:40:29;86819.80;;;12.80
74539;BMP180;66042;51.090;-115.340;2023-08-08T11:42:58;86817.60;;;12.80
74539;BMP180;66042;51.090;-115.340;2023-08-08T11:45:25;86819.80;;;12.70
74539;BMP180;66042;51.090;-115.340;2023-08-08T11:47:55;86831.80;;;12.70
74539;BMP180;66042;51.090;-115.340;2023-08-08T11:50:25;86830.80;;;12.60
74539;BMP180;66042;51.090;-115.340;2023-08-08T11:52:55;86832.60;;;12.56
74539;BMP180;66042;51.090;-115.340;2023-08-08T11:55:28;86831.60;;;12.58
74539;BMP180;66042;51.090;-115.340;2023-08-08T11:57:56;86828.40;;;12.50
74539;BMP180;66042;51.090;-115.340;2023-08-08T12:00:30;86828.20;;;12.52
74539;BMP180;66042;51.090;-115.340;2023-08-08T12:02:57;86824.00;;;12.56
74539;BMP180;66042;51.090;-115.340;2023-08-08T12:05:24;86819.80;;;12.50
74539;BMP180;66042;51.090;-115.340;2023-08-08T12:07:52;86822.00;;;12.50
74539;BMP180;66042;51.090;-115.340;2023-08-08T12:10:21;86820.40;;;12.50
74539;BMP180;66042;51.090;-115.340;2023-08-08T12:12:58;86823.80;;;12.50
74539;BMP180;66042;51.090;-115.340;2023-08-08T12:15:44;86827.80;;;12.50
74539;BMP180;66042;51.090;-115.340;2023-08-08T12:18:12;86825.60;;;12.40
74539;BMP180;66042;51.090;-115.340;2023-08-08T12:20:39;86830.40;;;12.40
74539;BMP180;66042;51.090;-115.340;2023-08-08T12:23:06;86832.80;;;12.40
74539;BMP180;66042;51.090;-115.340;2023-08-08T12:25:33;86829.60;;;12.40
74539;BMP180;66042;51.090;-115.340;2023-08-08T12:28:03;86832.00;;;12.40
74539;BMP180;66042;51.090;-115.340;2023-08-08T12:30:31;86828.40;;;12.40
74539;BMP180;66042;51.090;-115.340;2023-08-08T12:32:58;86826.20;;;12.40
74539;BMP180;66042;51.090;-115.340;2023-08-08T12:35:25;86825.00;;;12.30
74539;BMP180;66042;51.090;-115.340;2023-08-08T12:37:53;86825.60;;;12.30
74539;BMP180;66042;51.090;-115.340;2023-08-08T12:40:21;86825.00;;;12.30
74539;BMP180;66042;51.090;-115.340;2023-08-08T12:42:48;86824.20;;;12.30
74539;BMP180;66042;51.090;-115.340;2023-08-08T12:45:15;86825.80;;;12.30
74539;BMP180;66042;51.090;-115.340;2023-08-08T12:47:44;86833.00;;;12.30
74539;BMP180;66042;51.090;-115.340;2023-08-08T12:50:11;86834.60;;;12.32
74539;BMP180;66042;51.090;-115.340;2023-08-08T12:52:39;86835.00;;;12.30
74539;BMP180;66042;51.090;-115.340;2023-08-08T12:55:06;86833.80;;;12.30
74539;BMP180;66042;51.090;-115.340;2023-08-08T12:57:34;86833.60;;;12.30
74539;BMP180;66042;51.090;-115.340;2023-08-08T13:00:00;86834.00;;;12.30
74539;BMP180;66042;51.090;-115.340;2023-08-08T13:02:27;86830.60;;;12.30
74539;BMP180;66042;51.090;-115.340;2023-08-08T13:04:54;86833.60;;;12.40
74539;BMP180;66042;51.090;-115.340;2023-08-08T13:07:21;86834.40;;;12.40
74539;BMP180;66042;51.090;-115.340;2023-08-08T13:09:48;86836.60;;;12.50
74539;BMP180;66042;51.090;-115.340;2023-08-08T13:12:15;86837.20;;;12.50
74539;BMP180;66042;51.090;-115.340;2023-08-08T13:14:42;86841.20;;;12.54
74539;BMP180;66042;51.090;-115.340;2023-08-08T13:17:10;86835.80;;;12.60
74539;BMP180;66042;51.090;-115.340;2023-08-08T13:19:36;86837.80;;;12.60
74539;BMP180;66042;51.090;-115.340;2023-08-08T13:22:03;86838.40;;;12.60
74539;BMP180;66042;51.090;-115.340;2023-08-08T13:24:30;86840.60;;;12.70
74539;BMP180;66042;51.090;-115.340;2023-08-08T13:26:57;86837.20;;;12.70
74539;BMP180;66042;51.090;-115.340;2023-08-08T13:29:24;86838.60;;;12.80
74539;BMP180;66042;51.090;-115.340;2023-08-08T13:31:52;86834.20;;;12.80
74539;BMP180;66042;51.090;-115.340;2023-08-08T13:34:19;86836.80;;;12.80
74539;BMP180;66042;51.090;-115.340;2023-08-08T13:36:46;86833.40;;;12.80
74539;BMP180;66042;51.090;-115.340;2023-08-08T13:39:13;86828.60;;;12.84
74539;BMP180;66042;51.090;-115.340;2023-08-08T13:41:39;86831.60;;;12.90
74539;BMP180;66042;51.090;-115.340;2023-08-08T13:44:06;86834.00;;;12.90
74539;BMP180;66042;51.090;-115.340;2023-08-08T13:46:33;86837.20;;;12.80
74539;BMP180;66042;51.090;-115.340;2023-08-08T13:49:00;86837.00;;;12.80
74539;BMP180;66042;51.090;-115.340;2023-08-08T13:51:27;86832.80;;;12.80
74539;BMP180;66042;51.090;-115.340;2023-08-08T13:53:54;86828.00;;;12.80
74539;BMP180;66042;51.090;-115.340;2023-08-08T13:56:21;86825.40;;;12.90
74539;BMP180;66042;51.090;-115.340;2023-08-08T13:58:49;86829.40;;;12.90
74539;BMP180;66042;51.090;-115.340;2023-08-08T14:01:15;86827.60;;;12.90
74539;BMP180;66042;51.090;-115.340;2023-08-08T14:03:42;86830.00;;;12.98